Time;durP1;ratioP1;P1;durP2;ratioP2;P2;SDS_P1;SDS_P2;PMS_P1;PMS_P2;Temp;Humidity;BMP_temperature;BMP_pressure;BME280_temperature;BME280_humidity;BME280_pressure;Samples;Min_cycle;Max_cycle;Signal;HPM_P1;HPM_P2
2021/08/31 00:01:31;;;;;;;;;0.00;0.00;;;;;25.61;44.39;101513.47;5054208;28;45587;-70
2021/08/31 00:03:56;;;;;;;;;0.00;0.00;;;;;25.64;44.23;101522.44;5054006;28;45768;-70
2021/08/31 00:06:22;;;;;;;;;0.00;0.00;;;;;25.62;44.67;101521.59;5054158;28;45441;-70
2021/08/31 00:08:47;;;;;;;;;0.00;0.00;;;;;25.64;44.51;101519.72;5053913;28;46478;-69
2021/08/31 00:11:13;;;;;;;;;0.00;0.00;;;;;25.63;44.47;101514.31;5053507;28;45539;-69
2021/08/31 00:13:38;;;;;;;;;0.00;0.00;;;;;25.63;44.50;101517.03;5035720;28;45783;-69
2021/08/31 00:16:05;;;;;;;;;0.00;0.00;;;;;25.63;44.52;101517.03;5053889;28;45453;-70
2021/08/31 00:18:30;;;;;;;;;0.00;0.00;;;;;25.63;44.50;101520.69;5053488;28;46613;-70
2021/08/31 00:20:56;;;;;;;;;0.00;0.00;;;;;25.63;44.50;101517.94;5053595;28;44876;-70
2021/08/31 00:23:21;;;;;;;;;0.00;0.00;;;;;25.58;44.19;101514.50;5054157;28;45462;-70
2021/08/31 00:25:52;;;;;;;;;0.00;0.00;;;;;25.60;44.19;101514.44;5035923;28;45502;-70
2021/08/31 00:28:17;;;;;;;;;0.00;0.00;;;;;25.63;44.58;101517.94;5053665;28;45576;-70
2021/08/31 00:30:44;;;;;;;;;0.00;0.00;;;;;25.62;44.61;101513.44;5053619;28;45519;-70
2021/08/31 00:33:15;;;;;;;;;0.00;0.00;;;;;25.61;44.33;101519.84;5053750;28;44937;-70
2021/08/31 00:35:41;;;;;;;;;0.00;0.00;;;;;25.60;44.42;101518.06;5053751;28;45462;-70
2021/08/31 00:38:06;;;;;;;;;0.00;0.00;;;;;25.59;43.98;101516.25;5052048;28;46060;-70
2021/08/31 00:40:32;;;;;;;;;0.00;0.00;;;;;25.60;44.16;101520.78;5053383;28;45434;-70
2021/08/31 00:42:57;;;;;;;;;0.00;0.00;;;;;25.61;44.45;101522.56;5053752;28;45508;-70
2021/08/31 00:45:24;;;;;;;;;0.00;0.00;;;;;25.59;44.28;101518.97;5056750;28;45469;-70
2021/08/31 00:47:50;;;;;;;;;0.00;0.00;;;;;25.62;44.20;101518.00;5056673;28;46237;-70
2021/08/31 00:50:16;;;;;;;;;0.00;0.00;;;;;25.60;44.42;101523.50;5056710;28;45474;-70
2021/08/31 00:52:42;;;;;;;;;0.00;0.00;;;;;25.61;44.45;101518.94;5057113;28;45338;-70
2021/08/31 00:55:09;;;;;;;;;0.00;0.00;;;;;25.60;43.99;101512.59;5057021;28;45408;-70
2021/08/31 00:57:36;;;;;;;;;0.00;0.00;;;;;25.59;44.31;101516.25;5056522;28;45436;-70
2021/08/31 01:00:12;;;;;;;;;0.00;0.00;;;;;25.59;44.33;101508.09;5038318;28;45602;-70
2021/08/31 01:02:37;;;;;;;;;0.00;0.00;;;;;25.57;44.01;101500.91;5056904;28;45422;-69
2021/08/31 01:05:04;;;;;;;;;0.00;0.00;;;;;25.60;44.24;101509.00;5056757;28;45445;-69
2021/08/31 01:07:29;;;;;;;;;0.00;0.00;;;;;25.59;44.04;101508.09;5056307;28;45526;-69
2021/08/31 01:09:55;;;;;;;;;0.00;0.00;;;;;25.58;44.68;101508.16;5056412;28;45448;-69
2021/08/31 01:12:23;;;;;;;;;0.00;0.00;;;;;25.57;44.64;101509.97;5038439;28;45477;-69
2021/08/31 01:14:49;;;;;;;;;0.00;0.00;;;;;25.58;44.43;101514.50;5056880;28;45489;-69
2021/08/31 01:17:14;;;;;;;;;0.00;0.00;;;;;25.57;44.43;101518.16;5038165;28;45467;-69
2021/08/31 01:19:39;;;;;;;;;0.00;0.00;;;;;25.58;44.38;101517.22;5056396;28;45414;-69
2021/08/31 01:22:10;;;;;;;;;0.00;0.00;;;;;25.58;44.28;101519.06;5056585;28;45389;-69
2021/08/31 01:24:43;;;;;;;;;0.00;0.00;;;;;25.57;44.42;101526.31;5056643;28;45552;-69
2021/08/31 01:27:09;;;;;;;;;0.00;0.00;;;;;25.57;44.17;101530.88;5056216;28;45561;-69
2021/08/31 01:29:34;;;;;;;;;0.00;0.00;;;;;25.56;44.44;101532.72;5038142;28;45409;-69
2021/08/31 01:32:00;;;;;;;;;0.00;0.00;;;;;25.54;44.35;101524.59;5056129;28;45840;-69
2021/08/31 01:34:26;;;;;;;;;0.00;0.00;;;;;25.57;44.58;101525.44;5056103;28;45517;-69
2021/08/31 01:36:52;;;;;;;;;1.00;0.00;;;;;25.57;44.48;101525.44;5051299;28;45335;-69
2021/08/31 01:39:17;;;;;;;;;0.00;0.00;;;;;25.57;44.47;101529.03;5037922;28;44805;-69
2021/08/31 01:41:43;;;;;;;;;0.00;0.00;;;;;25.53;44.93;101517.38;5056025;28;45552;-69
2021/08/31 01:44:08;;;;;;;;;0.00;0.00;;;;;25.53;44.29;101513.75;5056522;28;45476;-70
2021/08/31 01:46:34;;;;;;;;;0.00;0.00;;;;;25.54;44.23;101518.28;5055957;28;45849;-69
2021/08/31 01:49:01;;;;;;;;;0.00;0.00;;;;;25.53;44.80;101517.38;5055783;28;45508;-69
2021/08/31 01:51:26;;;;;;;;;0.00;0.00;;;;;25.52;44.47;101515.59;5056145;28;45747;-70
2021/08/31 01:53:52;;;;;;;;;0.00;0.00;;;;;25.55;44.65;101512.78;5038308;28;45434;-69
2021/08/31 01:56:17;;;;;;;;;0.00;0.00;;;;;25.52;44.45;101517.44;5055773;28;45406;-69
2021/08/31 01:58:43;;;;;;;;;0.00;0.00;;;;;25.54;44.46;101518.28;5037856;28;45406;-69
2021/08/31 02:01:09;;;;;;;;;0.00;0.00;;;;;25.54;44.32;101523.72;5056322;28;45776;-69
2021/08/31 02:03:35;;;;;;;;;0.00;0.00;;;;;25.54;44.58;101529.16;5055989;28;45536;-69
2021/08/31 02:06:00;;;;;;;;;1.00;0.00;;;;;25.54;44.51;101523.72;5055776;28;45953;-70
2021/08/31 02:08:32;;;;;;;;;0.00;0.00;;;;;25.52;44.40;101522.88;5055429;28;45465;-70
2021/08/31 02:10:57;;;;;;;;;0.00;0.00;;;;;25.53;44.31;101532.81;5055437;28;45431;-69
2021/08/31 02:13:24;;;;;;;;;0.00;0.00;;;;;25.50;44.27;101528.38;5037542;28;45435;-69
2021/08/31 02:15:49;;;;;;;;;0.00;0.00;;;;;25.51;44.39;101529.25;5055339;28;45674;-69
2021/08/31 02:18:15;;;;;;;;;0.00;0.00;;;;;25.49;44.45;101523.91;5055239;28;45461;-69
2021/08/31 02:20:40;;;;;;;;;0.00;0.00;;;;;25.51;44.40;101526.53;5037621;28;45767;-70
2021/08/31 02:23:06;;;;;;;;;0.00;0.00;;;;;25.50;44.69;101531.09;5055686;28;45355;-70
2021/08/31 02:25:33;;;;;;;;;0.00;0.00;;;;;25.50;44.25;101527.50;5055620;28;46145;-69
2021/08/31 02:27:58;;;;;;;;;0.00;0.00;;;;;25.51;44.56;101529.25;5037265;28;45839;-69
2021/08/31 02:30:24;;;;;;;;;0.00;0.00;;;;;25.47;44.38;101528.50;5055389;28;45448;-69
2021/08/31 02:32:50;;;;;;;;;0.00;0.00;;;;;25.48;44.55;101529.38;5055421;28;45414;-69
2021/08/31 02:35:16;;;;;;;;;0.00;0.00;;;;;25.48;44.71;101526.66;5055308;28;46560;-69
2021/08/31 02:37:42;;;;;;;;;0.00;0.00;;;;;25.48;44.54;101526.66;5053978;28;45832;-69
2021/08/31 02:40:07;;;;;;;;;0.00;0.00;;;;;25.47;44.62;101519.41;5055508;28;45551;-69
2021/08/31 02:42:33;;;;;;;;;0.00;0.00;;;;;25.47;43.98;101528.50;5055021;28;45575;-69
2021/08/31 02:44:58;;;;;;;;;0.00;0.00;;;;;25.46;44.26;101526.72;5055355;28;45587;-70
2021/08/31 02:47:24;;;;;;;;;0.00;0.00;;;;;25.46;44.57;101520.38;5055276;28;45865;-70
2021/08/31 02:49:49;;;;;;;;;0.00;0.00;;;;;25.46;44.47;101517.66;5055146;28;45521;-69
2021/08/31 02:52:15;;;;;;;;;0.00;0.00;;;;;25.46;44.32;101526.72;5055345;28;45483;-69
2021/08/31 02:54:41;;;;;;;;;0.00;0.00;;;;;25.46;44.35;101525.84;5055032;28;45123;-69
2021/08/31 02:57:07;;;;;;;;;0.00;0.00;;;;;25.46;44.47;101525.84;5054797;28;45472;-69
2021/08/31 02:59:33;;;;;;;;;0.00;0.00;;;;;25.47;44.54;101524.88;5054785;28;45454;-69
2021/08/31 03:02:05;;;;;;;;;0.00;0.00;;;;;25.46;44.51;101512.22;5054944;28;45413;-69
2021/08/31 03:04:39;;;;;;;;;0.00;0.00;;;;;25.46;44.07;101514.94;5054788;28;45478;-69
2021/08/31 03:07:07;;;;;;;;;0.00;0.00;;;;;25.46;44.44;101518.53;5054425;28;45416;-69
2021/08/31 03:09:32;;;;;;;;;0.00;0.00;;;;;25.45;44.52;101514.06;5055049;28;45355;-69
2021/08/31 03:12:00;;;;;;;;;0.00;0.00;;;;;25.44;44.50;101511.38;5054842;28;45450;-70
2021/08/31 03:14:25;;;;;;;;;0.00;0.00;;;;;25.46;44.30;101517.66;5054852;28;46173;-70
2021/08/31 03:16:51;;;;;;;;;0.00;0.00;;;;;25.44;44.44;101514.09;5054608;28;45476;-69
2021/08/31 03:19:18;;;;;;;;;0.00;0.00;;;;;25.46;44.36;101517.66;5054741;28;45480;-70
2021/08/31 03:21:43;;;;;;;;;0.00;0.00;;;;;25.45;44.61;101507.69;5036707;28;45847;-69
2021/08/31 03:24:09;;;;;;;;;0.00;0.00;;;;;25.45;44.64;101513.13;5054491;28;45923;-69
2021/08/31 03:26:35;;;;;;;;;0.00;0.00;;;;;25.45;44.52;101515.88;5054291;28;45390;-69
2021/08/31 03:29:00;;;;;;;;;0.00;0.00;;;;;25.46;44.54;101514.94;5036657;28;45525;-69
2021/08/31 03:31:26;;;;;;;;;0.00;0.00;;;;;25.45;44.66;101518.59;5054467;28;45418;-69
2021/08/31 03:33:51;;;;;;;;;0.00;0.00;;;;;25.45;44.57;101513.13;5054277;28;46038;-69
2021/08/31 03:36:18;;;;;;;;;0.00;0.00;;;;;25.44;44.51;101519.56;5054287;28;45479;-69
2021/08/31 03:38:43;;;;;;;;;0.00;0.00;;;;;25.44;44.71;101519.56;5036698;28;45425;-69
2021/08/31 03:41:08;;;;;;;;;0.00;0.00;;;;;25.44;44.41;101516.81;5034619;28;45656;-69
2021/08/31 03:43:34;;;;;;;;;0.00;0.00;;;;;25.45;44.59;101518.59;5032552;28;47301;-70
2021/08/31 03:45:59;;;;;;;;;0.00;0.00;;;;;25.42;44.52;101518.72;5032402;28;46249;-69
2021/08/31 03:48:25;;;;;;;;;0.00;0.00;;;;;25.43;44.34;101531.38;5034172;28;45448;-70
2021/08/31 03:50:50;;;;;;;;;0.00;0.00;;;;;25.44;44.49;101527.72;5034246;28;45382;-69
2021/08/31 03:53:15;;;;;;;;;0.00;0.00;;;;;25.44;44.36;101533.16;5033998;28;46168;-69
2021/08/31 03:55:41;;;;;;;;;0.00;0.00;;;;;25.44;44.30;101533.16;5033870;28;44966;-69
2021/08/31 03:58:07;;;;;;;;;0.00;0.00;;;;;25.44;44.56;101535.88;5034000;28;45540;-69
2021/08/31 04:00:34;;;;;;;;;0.00;0.00;;;;;25.43;44.28;101536.81;5034337;28;45819;-70
2021/08/31 04:02:59;;;;;;;;;0.00;0.00;;;;;25.43;44.34;101539.53;5033774;28;45515;-70
2021/08/31 04:05:24;;;;;;;;;0.00;0.00;;;;;25.43;44.20;101542.25;5033850;28;45496;-69
2021/08/31 04:07:50;;;;;;;;;0.00;0.00;;;;;25.42;44.35;101535.06;5033895;28;45918;-69
2021/08/31 04:10:15;;;;;;;;;0.00;0.00;;;;;25.42;44.36;101540.50;5033688;28;45563;-69
2021/08/31 04:12:40;;;;;;;;;0.00;0.00;;;;;25.42;44.38;101537.78;5033812;28;45524;-69
2021/08/31 04:15:06;;;;;;;;;0.00;0.00;;;;;25.41;44.45;101534.16;5033759;28;45466;-69
2021/08/31 04:17:31;;;;;;;;;0.00;0.00;;;;;25.38;44.30;101531.53;5032230;28;45457;-69
2021/08/31 04:19:59;;;;;;;;;0.00;0.00;;;;;25.41;44.31;101545.06;5036114;28;45417;-70
2021/08/31 04:22:24;;;;;;;;;0.00;0.00;;;;;25.41;44.36;101544.16;5037056;28;45409;-70
2021/08/31 04:24:49;;;;;;;;;0.00;0.00;;;;;25.39;44.35;101548.75;5037069;28;45412;-69
2021/08/31 04:27:15;;;;;;;;;0.00;0.00;;;;;25.41;44.83;101546.88;5037010;28;45393;-69
2021/08/31 04:29:40;;;;;;;;;0.00;0.00;;;;;25.40;44.32;101554.16;5037260;28;45504;-69
2021/08/31 04:32:07;;;;;;;;;0.00;0.00;;;;;25.38;44.46;101550.59;5037605;28;46340;-69
2021/08/31 04:34:32;;;;;;;;;0.00;0.00;;;;;25.39;44.17;101557.84;5036917;28;45552;-69
2021/08/31 04:36:57;;;;;;;;;0.00;0.00;;;;;25.40;44.71;101559.59;5035931;28;44936;-69
2021/08/31 04:39:23;;;;;;;;;0.00;0.00;;;;;25.37;44.39;101554.28;5037200;28;45390;-69
2021/08/31 04:41:48;;;;;;;;;0.00;0.00;;;;;25.39;44.29;101556.94;5036948;28;45907;-70
2021/08/31 04:44:15;;;;;;;;;0.00;0.00;;;;;25.37;44.41;101553.38;5036971;28;45680;-69
2021/08/31 04:46:40;;;;;;;;;0.00;0.00;;;;;25.39;44.26;101555.13;5037042;28;45493;-69
2021/08/31 04:49:05;;;;;;;;;0.00;0.00;;;;;25.39;44.65;101551.47;5035764;28;45814;-69
2021/08/31 04:51:31;;;;;;;;;0.00;0.00;;;;;25.39;44.55;101562.38;5036472;28;45989;-69
2021/08/31 04:53:56;;;;;;;;;0.00;0.00;;;;;25.35;44.53;101551.59;5036581;28;45411;-69
2021/08/31 04:56:21;;;;;;;;;0.00;0.00;;;;;25.39;44.58;101562.38;5037188;28;45442;-69
2021/08/31 04:58:46;;;;;;;;;0.00;0.00;;;;;25.39;44.49;101567.81;5036843;28;45405;-69
2021/08/31 05:01:12;;;;;;;;;0.00;0.00;;;;;25.40;44.53;101569.63;5051763;28;47153;-70
2021/08/31 05:03:39;;;;;;;;;0.00;0.00;;;;;25.40;44.60;101569.63;5036556;28;45398;-70
2021/08/31 05:06:08;;;;;;;;;0.00;0.00;;;;;25.40;44.45;101564.19;5036831;28;45506;-70
2021/08/31 05:08:33;;;;;;;;;0.00;0.00;;;;;25.38;44.87;101560.63;5037085;28;45530;-70
2021/08/31 05:10:58;;;;;;;;;0.00;0.00;;;;;25.41;44.51;101571.38;5036488;28;46353;-70
2021/08/31 05:13:24;;;;;;;;;0.00;0.00;;;;;25.35;44.68;101562.50;5036505;28;45560;-69
2021/08/31 05:15:50;;;;;;;;;0.00;0.00;;;;;25.40;44.80;101564.19;5036683;28;45350;-69
2021/08/31 05:18:16;;;;;;;;;0.00;0.00;;;;;25.41;44.32;101564.13;5037191;28;45459;-69
2021/08/31 05:20:41;;;;;;;;;0.00;0.00;;;;;25.39;44.54;101573.28;5036265;28;45365;-69
2021/08/31 05:23:07;;;;;;;;;0.00;0.00;;;;;25.39;44.50;101576.91;5036846;28;45405;-69
2021/08/31 05:25:32;;;;;;;;;0.00;0.00;;;;;25.41;44.38;101576.84;5036567;28;44884;-69
2021/08/31 05:27:59;;;;;;;;;0.00;0.00;;;;;25.39;44.40;101573.28;5036211;28;45447;-70
2021/08/31 05:30:24;;;;;;;;;0.00;0.00;;;;;25.39;44.26;101576.00;5035586;28;45416;-69
2021/08/31 05:32:50;;;;;;;;;0.00;0.00;;;;;25.39;44.36;101579.63;5036360;28;45313;-69
2021/08/31 05:35:15;;;;;;;;;0.00;0.00;;;;;25.38;44.58;101575.13;5036644;28;45697;-69
2021/08/31 05:37:41;;;;;;;;;0.00;0.00;;;;;25.40;44.39;101575.06;5017535;28;45481;-69
2021/08/31 05:40:07;;;;;;;;;0.00;0.00;;;;;25.38;44.48;101572.38;5035932;28;46012;-70
2021/08/31 05:42:32;;;;;;;;;0.00;0.00;;;;;25.38;44.68;101576.97;5036306;28;45519;-70
2021/08/31 05:44:57;;;;;;;;;0.00;0.00;;;;;25.37;44.28;101580.59;5038587;28;45788;-69
2021/08/31 05:47:23;;;;;;;;;0.00;0.00;;;;;25.37;44.16;101586.06;5036608;28;45528;-69
2021/08/31 05:49:48;;;;;;;;;0.00;0.00;;;;;25.38;44.39;101583.28;5034731;28;45582;-69
2021/08/31 05:52:14;;;;;;;;;0.00;0.00;;;;;25.37;44.36;101580.59;5035868;28;45647;-69
2021/08/31 05:54:39;;;;;;;;;0.00;0.00;;;;;25.38;44.42;101585.13;5035945;28;45469;-69
2021/08/31 05:57:09;;;;;;;;;0.00;0.00;;;;;25.35;44.79;101588.84;5036319;28;45501;-69
2021/08/31 05:59:38;;;;;;;;;0.00;0.00;;;;;25.34;44.43;101582.50;5034197;28;47419;-69
2021/08/31 06:02:03;;;;;;;;;0.00;0.00;;;;;25.37;44.43;101589.69;5035759;28;45798;-69
2021/08/31 06:04:29;;;;;;;;;0.00;0.00;;;;;25.37;44.48;101595.13;5036049;28;45631;-69
2021/08/31 06:07:02;;;;;;;;;0.00;0.00;;;;;25.38;44.65;101587.84;5035556;28;45468;-70
2021/08/31 06:09:28;;;;;;;;;0.00;0.00;;;;;25.37;44.35;101586.06;5035950;28;46163;-69
2021/08/31 06:11:55;;;;;;;;;0.00;0.00;;;;;25.36;44.11;101598.78;5035245;28;45490;-69
2021/08/31 06:14:21;;;;;;;;;0.00;0.00;;;;;25.37;44.48;101600.59;5035779;28;45396;-68
2021/08/31 06:16:46;;;;;;;;;0.00;0.00;;;;;25.37;44.24;101592.41;5035832;28;45319;-68
2021/08/31 06:19:11;;;;;;;;;0.00;0.00;;;;;25.37;44.27;101605.13;5035354;28;45462;-69
2021/08/31 06:21:37;;;;;;;;;0.00;0.00;;;;;25.38;44.27;101609.63;5035320;28;45346;-69
2021/08/31 06:24:02;;;;;;;;;0.00;0.00;;;;;25.38;44.31;101609.63;5036300;28;45405;-68
2021/08/31 06:26:28;;;;;;;;;7.67;7.00;;;;;25.36;44.57;101606.94;5055315;28;45466;-67
2021/08/31 06:28:53;;;;;;;;;10.00;9.00;;;;;25.22;44.37;101610.13;5053832;28;47268;-68
2021/08/31 06:31:18;;;;;;;;;11.00;9.00;;;;;25.00;44.86;101612.63;5056034;28;45708;-68
2021/08/31 06:33:46;;;;;;;;;17.33;17.33;;;;;24.75;44.91;101616.13;5037478;28;45589;-67
2021/08/31 06:36:15;;;;;;;;;17.00;15.67;;;;;24.52;45.34;101608.69;5056352;28;45525;-66
2021/08/31 06:38:41;;;;;;;;;15.33;14.33;;;;;24.23;45.97;101616.78;5053950;28;45941;-68
2021/08/31 06:41:06;;;;;;;;;16.33;16.33;;;;;23.97;46.09;101615.69;5052421;28;45419;-68
2021/08/31 06:43:32;;;;;;;;;8.33;8.33;;;;;23.75;46.72;101624.41;5055290;28;45424;-67
2021/08/31 06:45:59;;;;;;;;;19.00;16.00;;;;;23.57;47.31;101627.59;5055315;28;45422;-67
2021/08/31 06:48:24;;;;;;;;;14.00;13.67;;;;;23.42;47.70;101633.44;5054904;28;45466;-67
2021/08/31 06:50:50;;;;;;;;;18.00;18.00;;;;;23.30;47.69;101627.34;5054879;28;45447;-68
2021/08/31 06:53:15;;;;;;;;;19.67;18.67;;;;;23.20;48.74;101620.38;5054902;28;45484;-66
2021/08/31 06:55:41;;;;;;;;;18.00;14.67;;;;;23.06;48.50;101614.41;5055658;28;45752;-67
2021/08/31 06:58:07;;;;;;;;;23.67;21.67;;;;;23.03;48.40;101622.63;5036791;28;46252;-68
2021/08/31 07:01:14;;;;;;;;;22.00;21.67;;;;;22.93;49.01;101627.34;5055988;28;45473;-71
2021/08/31 07:07:52;;;;;;;;;;;;;;;;;;;;;
2021/08/31 07:10:48;;;;;;;;;21.67;21.00;;;;;22.51;49.50;101601.13;4999907;28;75034;-69
2021/08/31 07:13:15;;;;;;;;;17.33;15.00;;;;;22.71;49.55;101630.53;4994964;28;44928;-67
2021/08/31 07:15:41;;;;;;;;;23.67;21.00;;;;;22.72;49.76;101632.31;5002393;28;45543;-66
2021/08/31 07:18:07;;;;;;;;;17.67;16.67;;;;;22.73;49.50;101633.22;5054254;28;45465;-66
2021/08/31 07:20:32;;;;;;;;;28.33;24.33;;;;;22.66;49.43;101632.47;5053505;28;45454;-67
2021/08/31 07:22:58;;;;;;;;;21.00;19.33;;;;;22.61;49.72;101622.63;5054323;28;45377;-67
2021/08/31 07:25:23;;;;;;;;;23.67;21.33;;;;;22.57;50.04;101633.53;5055309;28;45412;-68
2021/08/31 07:27:49;;;;;;;;;20.00;19.50;;;;;22.46;50.22;101635.59;5054437;28;45495;-68
2021/08/31 07:30:21;;;;;;;;;22.00;22.00;;;;;22.43;50.07;101632.94;5052751;28;45446;-66
2021/08/31 07:32:55;;;;;;;;;17.00;16.00;;;;;22.34;50.78;101628.63;5053534;28;45555;-67
2021/08/31 07:35:22;;;;;;;;;26.00;25.00;;;;;22.30;50.71;101629.59;5053859;28;45437;-67
2021/08/31 07:38:00;;;;;;;;;25.00;24.67;;;;;22.33;50.71;101634.06;5052477;28;45520;-67
2021/08/31 07:40:26;;;;;;;;;27.67;25.67;;;;;22.25;50.67;101630.63;5035008;28;46365;-67
2021/08/31 07:42:52;;;;;;;;;21.00;19.67;;;;;22.25;51.11;101644.16;5052705;28;45483;-67
2021/08/31 07:45:18;;;;;;;;;26.67;23.00;;;;;22.16;51.04;101637.09;5053228;28;45497;-68
2021/08/31 07:47:44;;;;;;;;;24.67;23.00;;;;;22.13;51.68;101639.84;5052827;28;45613;-68
2021/08/31 07:50:10;;;;;;;;;19.00;16.33;;;;;22.07;51.37;101631.84;5052659;28;45521;-69
2021/08/31 07:52:36;;;;;;;;;19.00;17.67;;;;;22.11;51.69;101631.72;5052821;28;45569;-69
2021/08/31 07:55:03;;;;;;;;;18.33;17.67;;;;;22.15;51.41;101641.59;5053174;28;45480;-69
2021/08/31 07:57:29;;;;;;;;;15.00;15.00;;;;;22.14;51.84;101639.81;5052886;28;45959;-68
2021/08/31 07:59:56;;;;;;;;;13.67;12.33;;;;;22.25;51.64;101641.44;5053604;28;45417;-69
2021/08/31 08:02:21;;;;;;;;;14.67;13.00;;;;;22.36;52.44;101642.13;5055736;28;45463;-69
2021/08/31 08:04:47;;;;;;;;;10.00;10.00;;;;;22.51;51.83;101641.78;5048351;28;45402;-69
2021/08/31 08:07:12;;;;;;;;;12.33;11.00;;;;;22.67;52.09;101644.19;5034494;28;45437;-68
2021/08/31 08:09:38;;;;;;;;;10.67;10.67;;;;;22.79;51.62;101653.88;5047497;28;45496;-69
2021/08/31 08:12:04;;;;;;;;;9.67;8.00;;;;;22.91;51.34;101648.19;5053584;28;45430;-68
2021/08/31 08:14:30;;;;;;;;;10.00;9.00;;;;;23.03;51.42;101653.34;5054157;28;45464;-68
2021/08/31 08:16:56;;;;;;;;;8.00;7.33;;;;;23.14;50.61;101656.69;5053360;28;45468;-68
2021/08/31 08:19:21;;;;;;;;;9.00;9.00;;;;;23.25;51.10;101655.53;5034616;28;47976;-68
2021/08/31 08:21:47;;;;;;;;;9.00;9.00;;;;;23.31;51.00;101659.00;5039415;28;45425;-68
2021/08/31 08:24:13;;;;;;;;;9.00;9.00;;;;;23.42;50.15;101658.75;5032977;28;45371;-68
2021/08/31 08:26:39;;;;;;;;;7.67;7.67;;;;;23.50;50.42;101662.16;5033403;28;45468;-70
2021/08/31 08:29:05;;;;;;;;;11.00;8.00;;;;;23.59;49.84;101652.88;5052666;28;45410;-68
2021/08/31 08:31:33;;;;;;;;;5.00;5.00;;;;;23.67;50.18;101655.41;5052869;28;45357;-68
2021/08/31 08:34:00;;;;;;;;;7.00;6.33;;;;;23.72;49.50;101656.19;5053525;28;45753;-69
2021/08/31 08:36:27;;;;;;;;;6.00;5.33;;;;;23.83;49.72;101653.22;5052592;28;45785;-68
2021/08/31 08:38:52;;;;;;;;;9.67;8.00;;;;;23.90;49.73;101660.28;5050068;28;48232;-68
2021/08/31 08:41:18;;;;;;;;;8.00;7.00;;;;;23.96;49.21;101663.72;5053188;28;45351;-68
2021/08/31 08:43:43;;;;;;;;;7.33;7.33;;;;;24.04;48.83;101668.94;5052668;28;45776;-69
2021/08/31 08:46:09;;;;;;;;;7.33;6.67;;;;;24.09;49.37;101657.94;5053111;28;45904;-68
2021/08/31 08:48:36;;;;;;;;;13.00;12.00;;;;;24.13;49.05;101662.34;5052676;28;45453;-69
2021/08/31 08:51:04;;;;;;;;;9.00;9.00;;;;;24.24;48.97;101662.03;5050700;28;45648;-69
2021/08/31 08:53:32;;;;;;;;;10.33;7.67;;;;;24.29;48.86;101654.66;5053030;28;45426;-69
2021/08/31 08:56:00;;;;;;;;;10.67;10.67;;;;;24.33;48.42;101661.78;5052493;28;45503;-70
2021/08/31 08:58:26;;;;;;;;;9.67;9.33;;;;;24.42;48.17;101666.06;5051902;28;46250;-68
2021/08/31 09:01:07;;;;;;;;;10.00;10.00;;;;;24.48;48.29;101672.25;5052185;28;45599;-69
2021/08/31 09:03:35;;;;;;;;;7.33;6.00;;;;;24.57;47.94;101675.66;5052464;28;45466;-68
2021/08/31 09:06:13;;;;;;;;;9.33;9.33;;;;;24.63;47.62;101670.03;5055255;28;45345;-68
2021/08/31 09:08:54;;;;;;;;;8.67;8.67;;;;;24.67;47.92;101683.50;5056157;28;45789;-68
2021/08/31 09:11:28;;;;;;;;;12.00;10.33;;;;;24.74;47.34;101678.75;5056046;28;45469;-70
2021/08/31 09:14:17;;;;;;;;;10.33;9.33;;;;;24.78;46.99;101672.28;5057142;28;45773;-69
2021/08/31 09:16:43;;;;;;;;;10.33;10.00;;;;;24.83;47.09;101669.44;5054846;28;45543;-68
2021/08/31 09:19:09;;;;;;;;;9.67;9.67;;;;;24.86;46.96;101664.75;5055635;28;46595;-68
2021/08/31 09:21:35;;;;;;;;;11.33;9.33;;;;;24.92;46.77;101672.75;5037458;28;45642;-68
2021/08/31 09:24:01;;;;;;;;;11.00;11.00;;;;;24.98;46.82;101673.50;5056097;28;45420;-69
2021/08/31 09:26:43;;;;;;;;;7.33;7.33;;;;;25.01;46.50;101668.88;5056785;28;45498;-69
2021/08/31 09:29:21;;;;;;;;;5.67;5.00;;;;;25.05;46.42;101672.38;5056679;28;46060;-69
2021/08/31 09:31:55;;;;;;;;;7.00;7.00;;;;;25.10;46.02;101678.56;5056033;28;45453;-69
2021/08/31 09:34:45;;;;;;;;;9.00;7.67;;;;;25.14;45.99;101677.53;5056494;28;45448;-69
2021/08/31 09:37:27;;;;;;;;;8.33;8.33;;;;;25.19;46.30;101675.56;5053296;28;45375;-68
2021/08/31 09:40:00;;;;;;;;;5.33;5.33;;;;;25.24;46.26;101673.59;5037029;28;45424;-69
2021/08/31 09:42:25;;;;;;;;;5.67;5.33;;;;;25.27;46.30;101673.50;5035578;28;45773;-68
2021/08/31 09:45:00;;;;;;;;;8.67;6.33;;;;;25.30;46.30;101657.06;5035285;28;45519;-69
2021/08/31 09:47:35;;;;;;;;;5.67;5.67;;;;;25.42;46.03;101665.78;5035446;28;45611;-68
2021/08/31 09:50:03;;;;;;;;;4.00;4.00;;;;;25.47;45.85;101675.56;5033929;28;47087;-69
2021/08/31 09:52:29;;;;;;;;;5.67;5.67;;;;;25.53;45.86;101663.56;5033925;28;45460;-71
2021/08/31 09:54:56;;;;;;;;;4.33;3.33;;;;;25.58;46.22;101671.59;5035492;28;45496;-69
2021/08/31 09:57:26;;;;;;;;;3.67;3.67;;;;;25.60;45.99;101676.03;5031982;28;45448;-69
2021/08/31 09:59:53;;;;;;;;;5.67;4.67;;;;;25.65;45.86;101674.06;5029649;28;45749;-69
2021/08/31 10:02:19;;;;;;;;;4.33;4.33;;;;;25.67;45.66;101677.63;5036105;28;45722;-68
2021/08/31 10:04:44;;;;;;;;;6.00;5.00;;;;;25.70;45.45;101666.63;5051106;28;45522;-69
2021/08/31 10:07:13;;;;;;;;;4.00;4.00;;;;;25.74;45.40;101673.75;5035103;28;45514;-69
2021/08/31 10:09:39;;;;;;;;;4.67;4.67;;;;;25.77;45.29;101666.41;5034834;28;45482;-69
2021/08/31 10:12:10;;;;;;;;;7.67;5.67;;;;;25.79;45.37;101669.97;5034986;28;45455;-69
2021/08/31 10:14:45;;;;;;;;;4.33;4.33;;;;;25.80;45.07;101667.19;5035814;28;45370;-72
2021/08/31 10:17:11;;;;;;;;;4.00;4.00;;;;;25.82;44.98;101672.59;5033310;28;45397;-69
2021/08/31 10:19:41;;;;;;;;;4.33;4.33;;;;;25.85;44.88;101680.66;5034128;28;47211;-69
2021/08/31 10:22:08;;;;;;;;;4.00;4.00;;;;;25.87;45.15;101679.63;5050734;28;45506;-69
2021/08/31 10:24:42;;;;;;;;;6.00;5.67;;;;;25.88;44.89;101686.00;5035182;28;45336;-71
2021/08/31 10:27:29;;;;;;;;;3.33;3.33;;;;;25.89;45.10;101687.78;5034742;28;45357;-69
2021/08/31 10:30:19;;;;;;;;;3.33;3.33;;;;;25.91;44.92;101685.91;5034856;28;46287;-68
2021/08/31 10:32:49;;;;;;;;;3.00;3.00;;;;;25.93;44.75;101686.75;5036199;28;45733;-68
2021/08/31 10:35:42;;;;;;;;;4.33;2.67;;;;;25.94;44.76;101678.53;5050449;28;45617;-69
2021/08/31 10:38:10;;;;;;;;;7.67;7.67;;;;;25.96;44.46;101683.06;5039821;28;45446;-70
2021/08/31 10:40:46;;;;;;;;;12.33;12.33;;;;;25.92;44.27;101688.59;5034901;28;45997;-70
2021/08/31 10:43:14;;;;;;;;;10.33;9.67;;;;;25.90;44.18;101686.88;5035674;28;45476;-68
2021/08/31 10:45:44;;;;;;;;;11.00;11.00;;;;;25.88;44.52;101688.72;5036969;28;45615;-70
2021/08/31 10:48:24;;;;;;;;;11.67;11.00;;;;;25.86;44.24;101682.44;5035977;28;45410;-68
2021/08/31 10:50:52;;;;;;;;;8.33;8.33;;;;;25.82;44.71;101684.38;5031741;28;46123;-67
2021/08/31 10:53:36;;;;;;;;;8.33;7.33;;;;;25.85;44.71;101688.81;5036071;28;45381;-71
2021/08/31 10:56:22;;;;;;;;;8.33;7.67;;;;;25.88;44.91;101686.88;5034607;28;45418;-69
2021/08/31 10:58:54;;;;;;;;;6.67;5.67;;;;;25.91;44.56;101685.91;5035014;28;45476;-69
2021/08/31 11:01:41;;;;;;;;;7.00;6.00;;;;;25.93;44.56;101686.75;5033905;28;45587;-68
2021/08/31 11:04:32;;;;;;;;;6.00;5.33;;;;;25.94;44.34;101674.91;5033322;28;45619;-70
2021/08/31 11:07:04;;;;;;;;;4.00;4.00;;;;;25.98;44.59;101670.25;5049642;28;45438;-70
2021/08/31 11:09:31;;;;;;;;;4.00;4.00;;;;;26.02;44.36;101671.94;5016131;28;45431;-70
2021/08/31 11:12:11;;;;;;;;;6.00;6.00;;;;;26.05;44.32;101675.41;5014133;28;45482;-70
2021/08/31 11:14:42;;;;;;;;;6.67;6.00;;;;;26.06;44.19;101679.06;5039651;28;45483;-69
2021/08/31 11:17:07;;;;;;;;;5.33;5.33;;;;;26.10;43.87;101678.88;5036406;28;45532;-70
2021/08/31 11:19:32;;;;;;;;;8.00;7.00;;;;;26.11;43.96;101677.03;5033413;28;45492;-72
2021/08/31 11:21:58;;;;;;;;;6.67;6.67;;;;;26.13;43.74;101670.56;5032893;28;45543;-70
2021/08/31 11:24:26;;;;;;;;;6.67;6.67;;;;;26.17;43.72;101671.34;5034574;28;45822;-70
2021/08/31 11:26:59;;;;;;;;;9.33;7.33;;;;;26.19;43.63;101663.13;5033107;28;45524;-70
2021/08/31 11:29:25;;;;;;;;;6.00;5.00;;;;;26.22;43.50;101673.91;5032331;28;45465;-70
2021/08/31 11:31:57;;;;;;;;;4.33;3.33;;;;;26.25;43.78;101673.81;5032409;28;46563;-70